createdAt,value
2023-04-28T00:02:05.111Z,4.03
2023-04-28T00:04:33.088Z,4.10
2023-04-28T00:07:00.987Z,3.60
2023-04-28T00:09:30.220Z,4.17
2023-04-28T00:11:58.002Z,4.47
2023-04-28T00:14:25.742Z,3.97
2023-04-28T00:16:56.857Z,4.00
2023-04-28T00:19:24.812Z,4.07
2023-04-28T00:21:52.632Z,4.67
2023-04-28T00:24:20.649Z,4.33
2023-04-28T00:26:49.732Z,4.23
2023-04-28T00:29:17.508Z,3.97
2023-04-28T00:31:45.884Z,4.37
2023-04-28T00:34:15.160Z,3.87
2023-04-28T00:36:43.172Z,4.00
2023-04-28T00:39:11.037Z,3.93
2023-04-28T00:41:38.892Z,3.80
2023-04-28T00:44:08.031Z,3.60
2023-04-28T00:46:35.911Z,3.37
2023-04-28T00:49:05.407Z,3.67
2023-04-28T00:51:33.614Z,3.53
2023-04-28T00:54:01.797Z,3.30
2023-04-28T00:56:31.018Z,3.57
2023-04-28T00:58:58.919Z,3.73
2023-04-28T01:01:28.116Z,3.30
2023-04-28T01:03:56.139Z,3.80
2023-04-28T01:06:24.445Z,3.50
2023-04-28T01:08:52.239Z,3.53
2023-04-28T01:11:20.513Z,3.60
2023-04-28T01:13:48.346Z,3.87
2023-04-28T01:16:16.247Z,3.93
2023-04-28T01:18:48.869Z,4.13
2023-04-28T01:21:27.903Z,3.87
2023-04-28T01:23:57.374Z,3.97
2023-04-28T01:26:25.192Z,3.77
2023-04-28T01:28:53.234Z,4.17
2023-04-28T01:31:21.200Z,4.10
2023-04-28T01:33:49.000Z,4.03
2023-04-28T01:36:16.774Z,3.57
2023-04-28T01:38:44.549Z,3.47
2023-04-28T01:41:13.653Z,4.37
2023-04-28T01:43:41.418Z,4.00
2023-04-28T01:46:09.147Z,4.10
2023-04-28T01:48:36.916Z,3.30
2023-04-28T01:51:05.106Z,3.80
2023-04-28T01:53:33.178Z,3.37
2023-04-28T01:56:00.964Z,3.10
2023-04-28T01:58:30.038Z,3.60
2023-04-28T02:00:57.823Z,4.10
2023-04-28T02:03:25.934Z,4.30
2023-04-28T02:05:53.830Z,3.67
2023-04-28T02:08:21.630Z,3.53
2023-04-28T02:10:49.400Z,4.07
2023-04-28T02:13:17.694Z,3.83
2023-04-28T02:15:46.777Z,4.10
2023-04-28T02:18:14.584Z,4.57
2023-04-28T02:20:42.359Z,3.73
2023-04-28T02:23:10.458Z,3.60
2023-04-28T02:25:38.258Z,3.80
2023-04-28T02:28:06.100Z,3.50
2023-04-28T02:30:33.855Z,3.70
2023-04-28T02:33:03.091Z,4.17
2023-04-28T02:35:30.873Z,3.47
2023-04-28T02:37:58.624Z,4.60
2023-04-28T02:40:26.397Z,3.87
2023-04-28T02:42:54.190Z,4.00
2023-04-28T02:45:22.081Z,4.67
2023-04-28T02:47:49.867Z,4.20
2023-04-28T02:50:19.356Z,4.27
2023-04-28T02:52:48.870Z,3.57
2023-04-28T02:55:23.819Z,4.57
2023-04-28T02:57:51.799Z,5.07
2023-04-28T03:00:20.108Z,3.83
2023-04-28T03:02:48.006Z,3.53
2023-04-28T03:05:15.991Z,4.07
2023-04-28T03:07:45.097Z,3.67
2023-04-28T03:10:12.997Z,4.37
2023-04-28T03:12:41.135Z,4.03
2023-04-28T03:15:10.649Z,4.60
2023-04-28T03:17:42.072Z,4.20
2023-04-28T03:20:11.327Z,4.00
2023-04-28T03:22:39.119Z,3.40
2023-04-28T03:25:08.956Z,3.37
2023-04-28T03:27:36.742Z,4.37
2023-04-28T03:30:04.989Z,4.50
2023-04-28T03:32:32.962Z,3.90
2023-04-28T03:35:00.801Z,4.23
2023-04-28T03:37:28.579Z,4.07
2023-04-28T03:39:56.357Z,4.10
2023-04-28T03:42:25.480Z,3.97
2023-04-28T03:44:53.218Z,4.20
2023-04-28T03:47:21.243Z,4.03
2023-04-28T03:49:49.010Z,4.00
2023-04-28T03:52:16.747Z,3.40
2023-04-28T03:54:44.532Z,3.90
2023-04-28T03:57:12.322Z,3.93
2023-04-28T03:59:41.541Z,3.90
2023-04-28T04:02:09.339Z,3.50
2023-04-28T04:04:37.504Z,4.00
2023-04-28T04:07:05.709Z,4.10
2023-04-28T04:09:33.588Z,3.90
2023-04-28T04:12:01.613Z,3.90
2023-04-28T04:14:29.389Z,3.60
2023-04-28T04:16:58.487Z,3.57
2023-04-28T04:19:26.671Z,3.87
2023-04-28T04:21:54.646Z,4.10
2023-04-28T04:24:22.405Z,3.83
2023-04-28T04:26:50.165Z,3.90
2023-04-28T04:29:17.933Z,3.43
2023-04-28T04:31:46.250Z,3.67
2023-04-28T04:34:15.664Z,3.30
2023-04-28T04:36:44.100Z,3.47
2023-04-28T04:39:11.889Z,3.40
2023-04-28T04:41:39.671Z,4.10
2023-04-28T04:44:07.450Z,3.47
2023-04-28T04:46:35.274Z,3.60
2023-04-28T04:49:03.099Z,3.40
2023-04-28T04:51:32.251Z,4.50
2023-04-28T04:53:59.996Z,4.47
2023-04-28T04:56:27.774Z,4.20
2023-04-28T04:58:55.595Z,4.27
2023-04-28T05:01:23.443Z,3.73
2023-04-28T05:03:51.354Z,4.77
2023-04-28T05:06:19.318Z,3.90
2023-04-28T05:08:48.423Z,4.70
2023-04-28T05:11:16.654Z,4.57
2023-04-28T05:13:44.392Z,4.80
2023-04-28T05:16:12.176Z,5.03
2023-04-28T05:18:40.027Z,4.90
2023-04-28T05:21:07.762Z,4.47
2023-04-28T05:23:35.514Z,4.73
2023-04-28T05:26:05.018Z,4.20
2023-04-28T05:28:32.780Z,4.27
2023-04-28T05:31:00.547Z,4.40
2023-04-28T05:33:28.317Z,4.57
2023-04-28T05:35:56.198Z,4.70
2023-04-28T05:38:24.045Z,5.03
2023-04-28T05:40:51.956Z,5.47
2023-04-28T05:43:21.157Z,3.67
2023-04-28T05:45:48.991Z,4.10
2023-04-28T05:48:16.958Z,4.67
2023-04-28T05:50:44.736Z,4.30
2023-04-28T05:53:12.639Z,4.30
2023-04-28T05:55:40.433Z,3.93
2023-04-28T05:58:08.217Z,3.60
2023-04-28T06:00:37.374Z,3.30
2023-04-28T06:03:05.515Z,4.67
2023-04-28T06:05:33.551Z,3.83
2023-04-28T06:08:01.462Z,4.50
2023-04-28T06:10:29.275Z,4.67
2023-04-28T06:12:57.030Z,4.63
2023-04-28T06:15:24.893Z,4.43
2023-04-28T06:17:54.356Z,4.43
2023-04-28T06:20:22.295Z,4.40
2023-04-28T06:22:50.053Z,3.97
2023-04-28T06:25:18.278Z,4.90
2023-04-28T06:27:46.299Z,4.33
2023-04-28T06:30:19.461Z,4.83
2023-04-28T06:32:47.600Z,4.67
2023-04-28T06:35:17.563Z,4.43
2023-04-28T06:37:45.349Z,5.10
2023-04-28T06:40:13.224Z,4.20
2023-04-28T06:42:41.136Z,4.50
2023-04-28T06:45:10.014Z,4.33
2023-04-28T06:47:40.410Z,4.77
2023-04-28T06:50:09.111Z,4.73
2023-04-28T06:52:40.028Z,3.90
2023-04-28T06:55:09.267Z,4.47
2023-04-28T06:57:37.746Z,4.10
2023-04-28T07:00:06.727Z,4.30
2023-04-28T07:02:35.078Z,4.77
2023-04-28T07:05:03.374Z,4.20
2023-04-28T07:07:31.199Z,4.03
2023-04-28T07:10:00.941Z,4.43
2023-04-28T07:12:28.890Z,4.30
2023-04-28T07:14:56.720Z,4.20
2023-04-28T07:17:24.629Z,4.47
2023-04-28T07:19:52.467Z,4.80
2023-04-28T07:22:20.397Z,4.40
2023-04-28T07:24:48.145Z,4.30
2023-04-28T07:27:17.270Z,4.87
2023-04-28T07:29:45.163Z,4.60
2023-04-28T07:32:13.068Z,4.73
2023-04-28T07:34:40.980Z,4.90
2023-04-28T07:37:09.668Z,5.10
2023-04-28T07:39:39.148Z,5.30
2023-04-28T07:42:07.018Z,5.27
2023-04-28T07:44:36.408Z,5.30
2023-04-28T07:47:04.384Z,5.00
2023-04-28T07:49:32.563Z,5.23
2023-04-28T07:52:00.357Z,5.30
2023-04-28T07:54:28.178Z,5.03
2023-04-28T07:56:57.814Z,5.40
2023-04-28T07:59:25.616Z,5.50
2023-04-28T08:01:54.810Z,5.80
2023-04-28T08:04:23.034Z,5.50
2023-04-28T08:06:51.226Z,6.10
2023-04-28T08:09:19.001Z,5.33
2023-04-28T08:11:46.839Z,5.37
2023-04-28T08:14:14.765Z,6.17
2023-04-28T08:16:43.799Z,5.97
2023-04-28T08:19:12.908Z,6.17
2023-04-28T08:21:40.754Z,5.40
2023-04-28T08:24:10.676Z,5.50
2023-04-28T08:26:38.896Z,5.67
2023-04-28T08:29:06.823Z,5.87
2023-04-28T08:31:34.668Z,6.43
2023-04-28T08:34:02.540Z,6.50
2023-04-28T08:36:35.191Z,6.30
2023-04-28T08:39:04.088Z,6.20
2023-04-28T08:41:33.968Z,6.73
2023-04-28T08:44:01.800Z,6.57
2023-04-28T08:46:30.643Z,6.20
2023-04-28T08:49:02.581Z,6.07
2023-04-28T08:51:37.764Z,6.13
2023-04-28T08:56:39.391Z,6.20
2023-04-28T08:59:07.349Z,6.47
2023-04-28T09:01:36.578Z,5.80
2023-04-28T09:04:04.538Z,5.80
2023-04-28T09:06:34.151Z,5.97
2023-04-28T09:09:21.320Z,6.17
2023-04-28T09:11:53.645Z,6.07
2023-04-28T09:14:21.373Z,5.90
2023-04-28T09:16:49.506Z,5.77
2023-04-28T09:19:17.572Z,5.73
2023-04-28T09:21:54.163Z,5.13
2023-04-28T09:24:31.547Z,5.10
2023-04-28T09:26:59.793Z,5.53
2023-04-28T09:29:27.830Z,5.77
2023-04-28T09:31:55.847Z,6.00
2023-04-28T09:34:23.642Z,5.80
2023-04-28T09:36:51.562Z,6.10
2023-04-28T09:39:32.096Z,6.27
2023-04-28T09:42:03.366Z,6.23
2023-04-28T09:44:31.241Z,6.07
2023-04-28T09:46:58.987Z,6.17
2023-04-28T09:49:26.736Z,6.47
2023-04-28T09:51:54.530Z,5.80
2023-04-28T09:54:23.402Z,6.17
2023-04-28T09:56:53.184Z,6.33
2023-04-28T09:59:22.478Z,6.30
2023-04-28T10:01:50.653Z,5.90
2023-04-28T10:04:19.506Z,6.20
2023-04-28T10:06:47.482Z,6.57
2023-04-28T10:09:16.474Z,6.27
2023-04-28T10:11:44.635Z,6.40
2023-04-28T10:14:14.433Z,6.00
2023-04-28T10:16:43.537Z,5.80
2023-04-28T10:19:11.890Z,5.87
2023-04-28T10:21:49.376Z,5.93
2023-04-28T10:24:22.024Z,6.13
2023-04-28T10:27:09.177Z,6.40
2023-04-28T10:29:38.487Z,6.17
2023-04-28T10:32:20.822Z,6.70
2023-04-28T10:34:48.965Z,6.10
2023-04-28T10:37:18.303Z,6.40
2023-04-28T10:40:23.773Z,6.13
2023-04-28T10:42:56.155Z,6.03
2023-04-28T10:46:01.910Z,6.40
2023-04-28T10:48:58.664Z,6.67
2023-04-28T10:51:30.562Z,6.30
2023-04-28T10:54:18.035Z,5.90
2023-04-28T10:57:20.732Z,6.37
2023-04-28T10:59:52.297Z,6.70
2023-04-28T11:02:43.961Z,6.27
2023-04-28T11:05:19.093Z,6.17
2023-04-28T11:08:30.773Z,5.83
2023-04-28T11:11:22.117Z,5.60
2023-04-28T11:13:50.987Z,6.20
2023-04-28T11:16:21.352Z,5.47
2023-04-28T11:19:09.406Z,4.67
2023-04-28T11:21:40.587Z,5.33
2023-04-28T11:24:12.493Z,4.73
2023-04-28T11:26:40.999Z,4.73
2023-04-28T11:29:09.105Z,4.43
2023-04-28T11:31:37.230Z,4.60
2023-04-28T11:34:06.829Z,5.10
2023-04-28T11:36:36.370Z,5.87
2023-04-28T11:39:07.797Z,5.50
2023-04-28T11:41:36.387Z,5.03
2023-04-28T11:44:12.085Z,4.77
2023-04-28T11:46:50.346Z,4.70
2023-04-28T11:49:18.727Z,4.57
2023-04-28T11:51:48.592Z,4.67
2023-04-28T11:54:22.516Z,5.03
2023-04-28T11:56:50.664Z,5.20
2023-04-28T11:59:20.605Z,4.40
2023-04-28T12:01:50.579Z,5.00
2023-04-28T12:04:29.234Z,5.03
2023-04-28T12:07:04.987Z,4.63
2023-04-28T12:09:35.150Z,4.20
2023-04-28T12:12:04.863Z,5.07
2023-04-28T12:14:35.349Z,4.90
2023-04-28T12:17:04.036Z,5.87
2023-04-28T12:19:43.941Z,4.80
2023-04-28T12:22:12.002Z,5.67
2023-04-28T12:24:41.442Z,5.40
2023-04-28T12:27:16.688Z,5.73
2023-04-28T12:29:46.568Z,9.90
2023-04-28T12:32:14.839Z,8.73
2023-04-28T12:34:43.390Z,6.93
2023-04-28T12:37:12.150Z,5.67
2023-04-28T12:39:43.119Z,5.27
2023-04-28T12:42:11.696Z,5.57
2023-04-28T12:44:40.646Z,5.20
2023-04-28T12:47:10.760Z,5.10
2023-04-28T12:49:38.996Z,5.30
2023-04-28T12:52:07.350Z,4.60
2023-04-28T12:54:35.106Z,5.13
2023-04-28T12:57:05.220Z,5.57
2023-04-28T12:59:33.343Z,4.33
2023-04-28T13:02:01.139Z,4.03
2023-04-28T13:04:29.088Z,5.77
2023-04-28T13:06:58.400Z,5.47
2023-04-28T13:09:26.701Z,5.53
2023-04-28T13:11:54.507Z,6.07
2023-04-28T13:14:23.918Z,6.10
2023-04-28T13:16:52.928Z,5.27
2023-04-28T13:19:20.703Z,5.47
2023-04-28T13:21:48.524Z,4.30
2023-04-28T13:24:16.382Z,5.30
2023-04-28T13:26:45.133Z,4.23
2023-04-28T13:29:14.220Z,4.57
2023-04-28T13:31:43.471Z,3.73
2023-04-28T13:34:15.912Z,4.43
2023-04-28T13:36:44.723Z,5.70
2023-04-28T13:39:14.375Z,4.27
2023-04-28T13:41:42.281Z,3.83
2023-04-28T13:44:10.175Z,3.30
2023-04-28T13:46:37.956Z,3.40
2023-04-28T13:49:07.171Z,2.83
2023-04-28T13:51:35.170Z,2.80
2023-04-28T13:54:04.257Z,2.83
2023-04-28T13:56:32.531Z,2.93
2023-04-28T13:59:00.468Z,2.70
2023-04-28T14:01:28.247Z,3.13
2023-04-28T14:03:56.278Z,4.50
2023-04-28T14:06:25.948Z,4.17
2023-04-28T14:08:53.810Z,3.90
2023-04-28T14:11:22.425Z,4.00
2023-04-28T14:13:50.397Z,3.40
2023-04-28T14:16:18.500Z,3.40
2023-04-28T14:18:46.349Z,3.03
2023-04-28T14:21:14.132Z,3.03
2023-04-28T14:23:43.259Z,2.33
2023-04-28T14:26:11.066Z,3.47
2023-04-28T14:28:38.835Z,4.17
2023-04-28T14:31:08.511Z,4.40
2023-04-28T14:33:37.134Z,3.90
2023-04-28T14:36:05.330Z,4.60
2023-04-28T14:38:33.179Z,4.30
2023-04-28T14:41:02.281Z,4.17
2023-04-28T14:43:30.022Z,4.30
2023-04-28T14:45:58.415Z,4.97
2023-04-28T14:48:26.676Z,4.73
2023-04-28T14:50:54.431Z,5.03
2023-04-28T14:53:22.353Z,4.90
2023-04-28T14:55:50.294Z,5.67
2023-04-28T14:58:19.355Z,5.40
2023-04-28T15:00:47.437Z,5.13
2023-04-28T15:03:15.420Z,3.77
2023-04-28T15:05:43.893Z,5.90
2023-04-28T15:08:12.514Z,5.10
2023-04-28T15:10:40.860Z,4.03
2023-04-28T15:13:08.766Z,3.87
2023-04-28T15:15:38.041Z,4.37
2023-04-28T15:18:05.883Z,5.63
2023-04-28T15:20:37.157Z,5.07
2023-04-28T15:23:04.990Z,4.43
2023-04-28T15:25:32.838Z,4.17
2023-04-28T15:28:00.592Z,4.33
2023-04-28T15:30:28.376Z,4.30
2023-04-28T15:32:57.570Z,3.53
2023-04-28T15:35:25.385Z,4.33
2023-04-28T15:37:53.394Z,3.80
2023-04-28T15:40:21.631Z,4.57
2023-04-28T15:42:51.471Z,3.97
2023-04-28T15:45:22.352Z,3.03
2023-04-28T15:47:51.236Z,3.10
2023-04-28T15:50:20.777Z,3.70
2023-04-28T15:52:50.040Z,4.03
2023-04-28T15:55:19.729Z,4.13
2023-04-28T15:57:47.903Z,3.70
2023-04-28T16:00:16.575Z,3.40
2023-04-28T16:02:45.252Z,3.17
2023-04-28T16:05:13.648Z,3.30
2023-04-28T16:07:43.652Z,3.77
2023-04-28T16:10:13.484Z,3.20
2023-04-28T16:12:42.732Z,4.30
2023-04-28T16:15:12.659Z,4.33
2023-04-28T16:17:41.024Z,6.67
2023-04-28T16:20:10.916Z,6.27
2023-04-28T16:22:39.920Z,4.70
2023-04-28T16:25:10.403Z,7.43
2023-04-28T16:27:39.189Z,6.13
2023-04-28T16:30:08.321Z,6.10
2023-04-28T16:32:38.195Z,5.63
2023-04-28T16:35:07.585Z,6.00
2023-04-28T16:37:36.344Z,6.03
2023-04-28T16:40:04.442Z,6.03
2023-04-28T16:42:33.548Z,6.20
2023-04-28T16:45:01.274Z,5.60
2023-04-28T16:47:31.023Z,6.80
2023-04-28T16:49:59.048Z,6.17
2023-04-28T16:52:27.437Z,5.90
2023-04-28T16:54:55.285Z,6.00
2023-04-28T16:57:23.100Z,6.97
2023-04-28T16:59:52.521Z,6.17
2023-04-28T17:02:20.480Z,5.30
2023-04-28T17:04:48.362Z,7.90
2023-04-28T17:07:16.154Z,7.10
2023-04-28T17:09:43.898Z,5.40
2023-04-28T17:12:11.639Z,6.07
2023-04-28T17:14:39.518Z,8.40
2023-04-28T17:17:08.685Z,7.63
2023-04-28T17:19:36.723Z,8.10
2023-04-28T17:22:04.516Z,7.53
2023-04-28T17:24:32.279Z,6.87
2023-04-28T17:27:00.020Z,7.20
2023-04-28T17:29:27.990Z,5.57
2023-04-28T17:31:56.148Z,6.00
2023-04-28T17:34:25.428Z,5.10
2023-04-28T17:36:53.172Z,5.00
2023-04-28T17:39:21.161Z,4.27
2023-04-28T17:41:48.927Z,6.13
2023-04-28T17:44:16.684Z,5.57
2023-04-28T17:46:45.803Z,6.17
2023-04-28T17:49:13.570Z,6.03
2023-04-28T17:51:42.656Z,4.53
2023-04-28T17:54:10.448Z,4.10
2023-04-28T17:56:39.111Z,4.60
2023-04-28T17:59:08.719Z,3.93
2023-04-28T18:01:36.712Z,3.53
2023-04-28T18:04:04.660Z,3.80
2023-04-28T18:06:32.421Z,3.87
2023-04-28T18:09:01.507Z,4.67
2023-04-28T18:11:29.334Z,4.40
2023-04-28T18:13:58.572Z,4.33
2023-04-28T18:16:26.923Z,3.87
2023-04-28T18:18:54.742Z,4.27
2023-04-28T18:21:22.490Z,4.30
2023-04-28T18:23:50.263Z,4.00
2023-04-28T18:26:19.352Z,4.13
2023-04-28T18:28:47.908Z,4.10
2023-04-28T18:31:16.082Z,4.03
2023-04-28T18:33:44.755Z,4.30
2023-04-28T18:36:12.499Z,4.73
2023-04-28T18:38:40.269Z,4.23
2023-04-28T18:41:15.631Z,6.00
2023-04-28T18:43:45.429Z,5.77
2023-04-28T18:46:13.618Z,5.63
2023-04-28T18:48:41.991Z,5.80
2023-04-28T18:51:09.883Z,5.17
2023-04-28T18:53:38.041Z,5.60
2023-04-28T18:56:05.946Z,4.80
2023-04-28T18:58:33.677Z,4.40
2023-04-28T19:01:02.800Z,4.50
2023-04-28T19:03:31.426Z,4.40
2023-04-28T19:05:59.475Z,4.30
2023-04-28T19:08:27.260Z,5.97
2023-04-28T19:10:55.016Z,6.70
2023-04-28T19:13:22.788Z,5.07
2023-04-28T19:15:53.419Z,5.90
2023-04-28T19:18:22.590Z,5.03
2023-04-28T19:20:52.043Z,5.50
2023-04-28T19:23:20.089Z,5.20
2023-04-28T19:25:48.694Z,4.90
2023-04-28T19:28:16.479Z,4.13
2023-04-28T19:30:44.251Z,3.53
2023-04-28T19:33:12.192Z,3.27
2023-04-28T19:35:41.529Z,3.03
2023-04-28T19:38:09.819Z,2.70
2023-04-28T19:40:37.869Z,3.00
2023-04-28T19:43:06.090Z,2.70
2023-04-28T19:45:34.939Z,2.80
2023-04-28T19:48:03.277Z,2.40
2023-04-28T19:50:31.098Z,2.20
2023-04-28T19:53:00.212Z,2.87
2023-04-28T19:55:27.955Z,2.53
2023-04-28T19:57:57.322Z,2.60
2023-04-28T20:00:25.508Z,1.80
2023-04-28T20:02:53.413Z,3.20
2023-04-28T20:05:21.731Z,3.67
2023-04-28T20:07:49.631Z,2.87
2023-04-28T20:10:18.936Z,2.60
2023-04-28T20:12:46.844Z,2.53
2023-04-28T20:15:16.507Z,2.20
2023-04-28T20:17:44.625Z,3.33
2023-04-28T20:20:12.872Z,2.60
2023-04-28T20:22:41.371Z,3.57
2023-04-28T20:25:10.755Z,3.77
2023-04-28T20:27:39.987Z,3.47
2023-04-28T20:30:08.971Z,3.53
2023-04-28T20:32:36.776Z,3.40
2023-04-28T20:35:05.590Z,2.90
2023-04-28T20:37:33.327Z,2.83
2023-04-28T20:40:01.122Z,2.90
2023-04-28T20:42:29.222Z,3.07
2023-04-28T20:44:58.542Z,3.27
2023-04-28T20:47:26.370Z,2.93
2023-04-28T20:49:54.206Z,3.30
2023-04-28T20:52:21.986Z,3.17
2023-04-28T20:54:49.749Z,2.33
2023-04-28T20:57:17.511Z,2.60
2023-04-28T20:59:45.519Z,2.40
2023-04-28T21:02:14.690Z,2.40
2023-04-28T21:04:42.507Z,2.63
2023-04-28T21:07:10.295Z,2.30
2023-04-28T21:09:38.033Z,2.03
2023-04-28T21:12:06.336Z,2.60
2023-04-28T21:14:36.354Z,2.17
2023-04-28T21:17:04.565Z,2.50
2023-04-28T21:19:34.070Z,2.90
2023-04-28T21:22:02.023Z,2.47
2023-04-28T21:24:29.795Z,2.57
2023-04-28T21:26:58.194Z,2.60
2023-04-28T21:29:26.382Z,2.53
2023-04-28T21:31:54.260Z,2.80
2023-04-28T21:34:22.086Z,2.53
2023-04-28T21:36:51.218Z,2.70
2023-04-28T21:39:18.943Z,3.17
2023-04-28T21:41:46.656Z,3.00
2023-04-28T21:44:14.405Z,3.10
2023-04-28T21:46:42.163Z,3.30
2023-04-28T21:49:09.929Z,2.80
2023-04-28T21:51:37.778Z,2.87
2023-04-28T21:54:08.138Z,2.23
2023-04-28T21:56:35.986Z,2.30
2023-04-28T21:59:04.097Z,2.30
2023-04-28T22:01:32.447Z,2.73
2023-04-28T22:04:01.531Z,2.40
2023-04-28T22:06:29.463Z,1.93
2023-04-28T22:08:57.446Z,2.17
2023-04-28T22:11:26.669Z,1.77
2023-04-28T22:13:54.434Z,2.30
2023-04-28T22:16:22.587Z,2.27
2023-04-28T22:18:50.505Z,2.23
2023-04-28T22:21:18.987Z,1.80
2023-04-28T22:23:46.766Z,1.80
2023-04-28T22:26:14.881Z,2.00
2023-04-28T22:28:44.016Z,1.53
2023-04-28T22:31:12.557Z,1.33
2023-04-28T22:33:40.419Z,1.60
2023-04-28T22:36:08.505Z,1.40
2023-04-28T22:38:36.224Z,1.30
2023-04-28T22:41:04.071Z,1.10
2023-04-28T22:43:32.205Z,1.50
2023-04-28T22:46:02.304Z,1.40
2023-04-28T22:48:30.122Z,0.83
2023-04-28T22:50:57.893Z,1.20
2023-04-28T22:53:25.711Z,1.13
2023-04-28T22:55:56.592Z,1.23
2023-04-28T22:58:24.454Z,1.10
2023-04-28T23:00:52.196Z,0.97
2023-04-28T23:03:22.669Z,0.90
2023-04-28T23:05:51.287Z,0.80
2023-04-28T23:08:19.070Z,1.10
2023-04-28T23:10:46.827Z,0.97
2023-04-28T23:13:14.589Z,0.83
2023-04-28T23:15:42.705Z,1.03
2023-04-28T23:18:10.605Z,0.90
2023-04-28T23:20:39.739Z,0.70
2023-04-28T23:23:07.502Z,1.10
2023-04-28T23:25:35.790Z,0.80
2023-04-28T23:28:03.560Z,1.10
2023-04-28T23:30:31.315Z,1.00
2023-04-28T23:32:59.100Z,1.00
2023-04-28T23:35:27.325Z,1.07
2023-04-28T23:37:56.420Z,1.27
2023-04-28T23:40:24.180Z,1.30
2023-04-28T23:42:51.953Z,1.10
2023-04-28T23:45:19.726Z,1.10
2023-04-28T23:47:47.674Z,0.90
2023-04-28T23:50:15.898Z,0.90
2023-04-28T23:52:43.885Z,1.03
2023-04-28T23:55:13.151Z,1.10
2023-04-28T23:57:41.753Z,1.00
